createdAt,value
2022-11-20T00:01:13.020Z,15.77
2022-11-20T00:03:39.480Z,13.90
2022-11-20T00:06:08.036Z,15.18
2022-11-20T00:08:34.600Z,15.40
2022-11-20T00:11:06.196Z,16.63
2022-11-20T00:13:33.238Z,15.57
2022-11-20T00:16:01.208Z,15.13
2022-11-20T00:18:28.557Z,17.08
2022-11-20T00:21:00.759Z,16.15
2022-11-20T00:23:27.155Z,16.80
2022-11-20T00:25:53.507Z,15.32
2022-11-20T00:28:19.956Z,17.08
2022-11-20T00:30:46.301Z,17.60
2022-11-20T00:33:12.691Z,16.33
2022-11-20T00:35:39.083Z,16.23
2022-11-20T00:38:05.458Z,17.00
2022-11-20T00:40:31.824Z,15.00
2022-11-20T00:42:58.278Z,14.98
2022-11-20T00:45:24.620Z,15.85
2022-11-20T00:47:51.019Z,16.27
2022-11-20T00:50:17.421Z,17.02
2022-11-20T00:52:43.795Z,15.57
2022-11-20T00:55:10.148Z,17.15
2022-11-20T00:57:36.592Z,14.90
2022-11-20T01:00:03.725Z,16.52
2022-11-20T01:02:30.097Z,14.80
2022-11-20T01:04:56.435Z,15.82
2022-11-20T01:07:22.862Z,16.75
2022-11-20T01:09:49.251Z,15.50
2022-11-20T01:12:15.699Z,15.75
2022-11-20T01:14:42.016Z,15.18
2022-11-20T01:17:08.420Z,15.85
2022-11-20T01:19:34.772Z,16.33
2022-11-20T01:22:01.207Z,16.60
2022-11-20T01:24:27.576Z,17.15
2022-11-20T01:26:54.087Z,16.17
2022-11-20T01:29:24.440Z,16.52
2022-11-20T01:31:51.131Z,17.25
2022-11-20T01:34:20.153Z,15.88
2022-11-20T01:36:47.488Z,17.10
2022-11-20T01:39:23.178Z,18.02
2022-11-20T01:42:10.677Z,17.05
2022-11-20T01:44:59.525Z,17.73
2022-11-20T01:47:51.927Z,16.83
2022-11-20T01:50:25.519Z,15.23
2022-11-20T01:52:58.011Z,17.17
2022-11-20T01:55:32.930Z,16.30
2022-11-20T01:58:00.568Z,17.42
2022-11-20T02:00:27.016Z,15.52
2022-11-20T02:02:58.461Z,16.58
2022-11-20T02:05:39.866Z,18.27
2022-11-20T02:08:07.754Z,15.98
2022-11-20T02:10:34.438Z,15.23
2022-11-20T02:13:19.335Z,16.73
2022-11-20T02:15:47.215Z,15.90
2022-11-20T02:18:16.207Z,16.90
2022-11-20T02:20:49.075Z,16.45
2022-11-20T02:23:33.750Z,17.48
2022-11-20T02:26:04.063Z,18.20
2022-11-20T02:28:30.522Z,17.88
2022-11-20T02:30:57.183Z,17.63
2022-11-20T02:33:23.607Z,18.92
2022-11-20T02:35:50.047Z,17.10
2022-11-20T02:38:16.589Z,18.77
2022-11-20T02:40:43.255Z,18.75
2022-11-20T02:43:10.313Z,19.02
2022-11-20T02:45:37.079Z,19.70
2022-11-20T02:48:03.558Z,17.33
2022-11-20T02:50:29.932Z,17.55
2022-11-20T02:52:56.294Z,17.75
2022-11-20T02:55:23.010Z,19.38
2022-11-20T02:57:49.400Z,17.20
2022-11-20T03:00:16.012Z,18.40
2022-11-20T03:02:42.399Z,19.25
2022-11-20T03:05:09.172Z,18.83
2022-11-20T03:07:35.596Z,18.52
2022-11-20T03:10:02.035Z,17.13
2022-11-20T03:12:28.396Z,17.17
2022-11-20T03:14:54.747Z,19.00
2022-11-20T03:17:21.162Z,17.73
2022-11-20T03:19:47.530Z,18.40
2022-11-20T03:22:14.168Z,18.77
2022-11-20T03:24:40.551Z,18.00
2022-11-20T03:27:06.909Z,17.63
2022-11-20T03:29:33.335Z,19.15
2022-11-20T03:32:00.833Z,18.33
2022-11-20T03:34:27.167Z,18.45
2022-11-20T03:36:53.631Z,19.05
2022-11-20T03:39:20.304Z,19.50
2022-11-20T03:41:46.898Z,19.25
2022-11-20T03:44:13.325Z,19.30
2022-11-20T03:46:40.178Z,19.35
2022-11-20T03:49:06.760Z,18.75
2022-11-20T03:51:35.318Z,16.85
2022-11-20T03:54:07.846Z,19.55
2022-11-20T03:56:37.148Z,18.00
2022-11-20T03:59:03.969Z,20.55
2022-11-20T04:01:33.651Z,19.33
2022-11-20T04:04:00.761Z,17.08
2022-11-20T04:06:31.892Z,20.20
2022-11-20T04:08:59.522Z,19.77
2022-11-20T04:11:28.620Z,19.10
2022-11-20T04:14:00.501Z,18.27
2022-11-20T04:16:30.016Z,19.15
2022-11-20T04:18:59.069Z,19.25
2022-11-20T04:21:26.546Z,18.88
2022-11-20T04:23:53.968Z,19.98
2022-11-20T04:26:21.648Z,20.63
2022-11-20T04:28:48.058Z,19.17
2022-11-20T04:31:16.582Z,22.60
2022-11-20T04:33:43.660Z,19.60
2022-11-20T04:36:16.255Z,18.65
2022-11-20T04:38:42.845Z,17.55
2022-11-20T04:41:15.466Z,18.38
2022-11-20T04:43:41.945Z,19.17
2022-11-20T04:46:08.288Z,18.98
2022-11-20T04:48:35.781Z,19.63
2022-11-20T04:51:05.415Z,19.73
2022-11-20T04:53:32.060Z,21.25
2022-11-20T04:56:03.348Z,18.92
2022-11-20T04:58:30.199Z,19.92
2022-11-20T05:01:24.694Z,18.20
2022-11-20T05:03:51.408Z,19.65
2022-11-20T05:06:19.746Z,18.23
2022-11-20T05:08:46.358Z,19.77
2022-11-20T05:11:15.145Z,19.98
2022-11-20T05:13:41.806Z,20.98
2022-11-20T05:16:14.076Z,19.33
2022-11-20T05:18:41.762Z,21.02
2022-11-20T05:21:09.931Z,22.05
2022-11-20T05:23:37.525Z,19.88
2022-11-20T05:26:05.164Z,20.75
2022-11-20T05:28:32.513Z,18.83
2022-11-20T05:31:10.309Z,19.08
2022-11-20T05:33:37.373Z,22.13
2022-11-20T05:36:04.745Z,19.45
2022-11-20T05:38:31.169Z,19.55
2022-11-20T05:41:05.440Z,21.42
2022-11-20T05:43:36.119Z,20.88
2022-11-20T05:46:03.861Z,19.17
2022-11-20T05:48:30.338Z,19.63
2022-11-20T05:50:59.223Z,22.75
2022-11-20T05:53:27.707Z,21.02
2022-11-20T05:56:01.241Z,20.75
2022-11-20T05:58:27.881Z,20.80
2022-11-20T06:00:54.245Z,19.10
2022-11-20T06:03:21.317Z,22.90
2022-11-20T06:05:47.657Z,20.50
2022-11-20T06:08:14.060Z,19.23
2022-11-20T06:10:40.395Z,22.17
2022-11-20T06:13:06.789Z,24.23
2022-11-20T06:15:33.142Z,20.38
2022-11-20T06:17:59.890Z,22.75
2022-11-20T06:20:26.210Z,21.67
2022-11-20T06:22:53.683Z,23.20
2022-11-20T06:25:20.034Z,23.80
2022-11-20T06:27:46.441Z,22.15
2022-11-20T06:30:13.252Z,21.65
2022-11-20T06:32:39.627Z,23.60
2022-11-20T06:35:06.284Z,22.48
2022-11-20T06:37:32.678Z,23.75
2022-11-20T06:39:59.032Z,21.65
2022-11-20T06:42:25.427Z,23.15
2022-11-20T06:44:51.748Z,22.60
2022-11-20T06:47:18.125Z,24.38
2022-11-20T06:49:44.693Z,21.73
2022-11-20T06:52:11.071Z,23.50
2022-11-20T06:54:37.431Z,22.02
2022-11-20T06:57:03.810Z,23.75
2022-11-20T06:59:30.273Z,22.08
2022-11-20T07:01:56.613Z,23.25
2022-11-20T07:04:22.948Z,22.42
2022-11-20T07:06:49.381Z,22.73
2022-11-20T07:09:15.827Z,23.00
2022-11-20T07:11:42.268Z,23.17
2022-11-20T07:14:08.630Z,22.50
2022-11-20T07:16:34.994Z,21.17
2022-11-20T07:19:01.336Z,23.88
2022-11-20T07:21:27.790Z,21.50
2022-11-20T07:23:54.247Z,22.60
2022-11-20T07:26:20.623Z,23.15
2022-11-20T07:28:47.210Z,24.13
2022-11-20T07:31:18.803Z,23.55
2022-11-20T07:33:45.617Z,24.07
2022-11-20T07:36:12.078Z,21.27
2022-11-20T07:38:39.000Z,23.35
2022-11-20T07:41:05.580Z,21.75
2022-11-20T07:43:33.898Z,21.65
2022-11-20T07:46:04.795Z,23.33
2022-11-20T07:48:31.145Z,21.15
2022-11-20T07:50:57.752Z,19.02
2022-11-20T07:53:24.692Z,19.95
2022-11-20T07:55:53.256Z,20.88
2022-11-20T07:58:20.956Z,20.38
2022-11-20T08:00:47.773Z,20.52
2022-11-20T08:03:14.594Z,20.83
2022-11-20T08:05:40.967Z,21.08
2022-11-20T08:08:08.558Z,20.77
2022-11-20T08:10:35.071Z,21.33
2022-11-20T08:13:19.932Z,19.52
2022-11-20T08:15:53.215Z,21.15
2022-11-20T08:18:35.168Z,19.65
2022-11-20T08:21:05.058Z,20.27
2022-11-20T08:23:31.751Z,19.33
2022-11-20T08:25:58.332Z,20.42
2022-11-20T08:28:24.773Z,20.40
2022-11-20T08:30:51.588Z,19.95
2022-11-20T08:33:18.943Z,22.63
2022-11-20T08:35:45.458Z,22.05
2022-11-20T08:38:11.834Z,20.40
2022-11-20T08:40:38.215Z,21.70
2022-11-20T08:43:05.182Z,23.90
2022-11-20T08:45:34.724Z,20.38
2022-11-20T08:48:03.319Z,21.10
2022-11-20T08:50:32.467Z,22.10
2022-11-20T08:53:06.488Z,21.30
2022-11-20T08:55:33.591Z,22.67
2022-11-20T08:58:04.984Z,23.02
2022-11-20T09:00:31.370Z,23.60
2022-11-20T09:02:59.405Z,21.67
2022-11-20T09:05:25.796Z,22.33
2022-11-20T09:07:52.283Z,22.20
2022-11-20T09:10:25.821Z,22.77
2022-11-20T09:12:53.500Z,22.52
2022-11-20T09:15:20.203Z,22.00
2022-11-20T09:17:53.457Z,22.42
2022-11-20T09:20:21.041Z,22.52
2022-11-20T09:22:47.551Z,23.15
2022-11-20T09:25:14.119Z,23.98
2022-11-20T09:27:42.288Z,19.48
2022-11-20T09:30:09.133Z,23.45
2022-11-20T09:32:36.555Z,21.60
2022-11-20T09:35:03.201Z,20.60
2022-11-20T09:37:30.007Z,21.73
2022-11-20T09:39:56.376Z,25.23
2022-11-20T09:42:49.122Z,24.05
2022-11-20T09:46:03.571Z,22.23
2022-11-20T09:48:48.163Z,22.35
2022-11-20T09:51:25.972Z,21.17
2022-11-20T09:54:17.011Z,22.42
2022-11-20T09:56:47.426Z,22.70
2022-11-20T09:59:39.292Z,21.65
2022-11-20T10:02:25.931Z,19.88
2022-11-20T10:05:07.930Z,21.45
2022-11-20T10:07:44.283Z,21.83
2022-11-20T10:10:43.938Z,25.00
2022-11-20T10:13:43.154Z,27.80
2022-11-20T10:16:41.200Z,26.48
2022-11-20T10:19:48.573Z,29.92
2022-11-20T10:22:44.910Z,25.73
2022-11-20T10:25:23.505Z,22.42
2022-11-20T10:28:01.122Z,21.83
2022-11-20T10:30:28.100Z,23.75
2022-11-20T10:33:21.027Z,25.17
2022-11-20T10:36:01.448Z,18.13
2022-11-20T10:38:52.787Z,25.58
2022-11-20T10:41:26.288Z,24.67
2022-11-20T10:43:59.788Z,21.50
2022-11-20T10:46:27.012Z,23.55
2022-11-20T10:48:53.410Z,23.88
2022-11-20T10:51:36.793Z,21.95
2022-11-20T10:54:26.048Z,22.33
2022-11-20T10:56:54.776Z,22.50
2022-11-20T10:59:36.218Z,20.88
2022-11-20T11:02:13.791Z,19.35
2022-11-20T11:04:46.104Z,20.30
2022-11-20T11:07:24.647Z,22.05
2022-11-20T11:09:55.768Z,23.35
2022-11-20T11:12:26.565Z,20.92
2022-11-20T11:14:55.280Z,20.42
2022-11-20T11:17:28.175Z,19.55
2022-11-20T11:22:33.563Z,20.67
2022-11-20T11:25:00.923Z,22.80
2022-11-20T11:27:27.616Z,20.98
2022-11-20T11:30:30.913Z,22.13
2022-11-20T11:33:06.558Z,15.88
2022-11-20T11:35:33.642Z,22.55
2022-11-20T11:38:08.077Z,21.02
2022-11-20T11:40:38.409Z,20.98
2022-11-20T11:43:38.287Z,21.85
2022-11-20T11:46:25.669Z,20.00
2022-11-20T11:49:00.716Z,21.33
2022-11-20T11:51:39.673Z,19.75
2022-11-20T11:54:17.531Z,20.83
2022-11-20T11:56:45.597Z,20.13
2022-11-20T11:59:23.675Z,20.40
2022-11-20T12:01:58.532Z,21.25
2022-11-20T12:04:51.572Z,20.70
2022-11-20T12:07:46.769Z,23.63
2022-11-20T12:10:21.578Z,21.15
2022-11-20T12:13:04.996Z,19.15
2022-11-20T12:15:34.944Z,21.30
2022-11-20T12:18:02.220Z,21.42
2022-11-20T12:20:40.714Z,19.10
2022-11-20T12:23:26.361Z,21.45
2022-11-20T12:25:57.760Z,21.27
2022-11-20T12:28:42.979Z,20.42
2022-11-20T12:31:51.087Z,21.30
2022-11-20T12:34:41.172Z,19.70
2022-11-20T12:37:36.691Z,20.75
2022-11-20T12:40:21.895Z,20.42
2022-11-20T12:43:41.884Z,20.13
2022-11-20T12:46:27.562Z,19.00
2022-11-20T12:49:13.379Z,19.27
2022-11-20T12:51:53.778Z,18.52
2022-11-20T12:54:47.074Z,17.85
2022-11-20T12:57:26.625Z,18.83
2022-11-20T13:00:09.361Z,19.27
2022-11-20T13:03:04.956Z,19.83
2022-11-20T13:05:50.046Z,17.48
2022-11-20T13:08:33.133Z,17.55
2022-11-20T13:11:14.312Z,17.52
2022-11-20T13:14:05.302Z,18.13
2022-11-20T13:16:37.820Z,16.67
2022-11-20T13:19:06.284Z,17.98
2022-11-20T13:21:47.573Z,17.30
2022-11-20T13:24:20.630Z,17.17
2022-11-20T13:26:47.787Z,16.17
2022-11-20T13:29:20.989Z,17.70
2022-11-20T13:31:49.070Z,17.05
2022-11-20T13:34:25.734Z,16.10
2022-11-20T13:36:55.308Z,18.00
2022-11-20T13:39:29.664Z,15.80
2022-11-20T13:42:16.331Z,15.73
2022-11-20T13:44:51.575Z,16.38
2022-11-20T13:47:26.394Z,14.10
2022-11-20T13:49:57.594Z,16.92
2022-11-20T13:52:39.612Z,15.32
2022-11-20T13:55:12.572Z,15.55
2022-11-20T14:00:13.361Z,14.23
2022-11-20T14:02:41.522Z,16.15
2022-11-20T14:05:21.561Z,16.33
2022-11-20T14:07:48.694Z,17.42
2022-11-20T14:10:31.111Z,15.63
2022-11-20T14:12:58.358Z,15.00
2022-11-20T14:15:25.764Z,13.63
2022-11-20T14:17:52.177Z,14.45
2022-11-20T14:20:23.891Z,14.68
2022-11-20T14:22:54.180Z,13.82
2022-11-20T14:25:24.421Z,13.10
2022-11-20T14:27:57.179Z,12.95
2022-11-20T14:30:29.268Z,13.70
2022-11-20T14:33:02.302Z,12.37
2022-11-20T14:35:35.808Z,12.18
2022-11-20T14:38:04.288Z,13.95
2022-11-20T14:40:36.681Z,13.77
2022-11-20T14:43:18.396Z,12.38
2022-11-20T14:45:49.589Z,13.60
2022-11-20T14:48:16.685Z,14.32
2022-11-20T14:50:43.202Z,12.93
2022-11-20T14:53:09.753Z,12.20
2022-11-20T14:55:38.757Z,10.23
2022-11-20T14:58:26.985Z,11.38
2022-11-20T15:01:13.929Z,11.65
2022-11-20T15:03:41.853Z,12.63
2022-11-20T15:06:12.551Z,11.80
2022-11-20T15:08:39.205Z,10.07
2022-11-20T15:11:19.080Z,10.18
2022-11-20T15:13:45.512Z,11.35
2022-11-20T15:16:20.411Z,10.95
2022-11-20T15:18:47.628Z,11.52
2022-11-20T15:21:19.364Z,12.60
2022-11-20T15:23:45.957Z,13.38
2022-11-20T15:26:19.583Z,14.63
2022-11-20T15:28:50.919Z,14.85
2022-11-20T15:31:20.486Z,15.68
2022-11-20T15:33:47.236Z,14.68
2022-11-20T15:36:13.909Z,14.10
2022-11-20T15:38:40.786Z,14.68
2022-11-20T15:41:07.685Z,14.13
2022-11-20T15:43:34.151Z,12.75
2022-11-20T15:46:07.136Z,13.07
2022-11-20T15:51:27.534Z,12.98
2022-11-20T15:53:55.687Z,13.05
2022-11-20T15:56:22.036Z,14.25
2022-11-20T15:58:48.433Z,13.90
2022-11-20T16:01:17.838Z,13.07
2022-11-20T16:03:44.431Z,12.57
2022-11-20T16:06:10.976Z,12.95
2022-11-20T16:08:37.479Z,14.40
2022-11-20T16:11:04.394Z,14.38
2022-11-20T16:13:51.626Z,12.82
2022-11-20T16:16:24.356Z,14.27
2022-11-20T16:18:51.124Z,11.65
2022-11-20T16:21:18.026Z,12.98
2022-11-20T16:23:44.683Z,12.07
2022-11-20T16:26:17.577Z,12.80
2022-11-20T16:28:44.622Z,11.60
2022-11-20T16:31:12.962Z,13.63
2022-11-20T16:33:40.848Z,12.88
2022-11-20T16:36:16.684Z,12.85
2022-11-20T16:38:43.231Z,13.13
2022-11-20T16:41:16.170Z,13.20
2022-11-20T16:46:17.434Z,12.82
2022-11-20T16:48:43.911Z,11.93
2022-11-20T16:51:12.204Z,11.88
2022-11-20T16:53:39.595Z,12.70
2022-11-20T16:56:18.092Z,13.10
2022-11-20T16:58:46.287Z,12.63
2022-11-20T17:01:15.584Z,13.35
2022-11-20T17:03:43.729Z,12.68
2022-11-20T17:06:18.479Z,13.45
2022-11-20T17:08:46.573Z,12.43
2022-11-20T17:11:15.651Z,12.93
2022-11-20T17:13:42.250Z,14.57
2022-11-20T17:16:20.089Z,13.48
2022-11-20T17:18:46.749Z,12.70
2022-11-20T17:21:13.878Z,12.70
2022-11-20T17:23:42.479Z,13.35
2022-11-20T17:26:11.521Z,12.70
2022-11-20T17:28:38.917Z,13.35
2022-11-20T17:31:08.436Z,15.13
2022-11-20T17:33:36.949Z,14.90
2022-11-20T17:36:04.387Z,13.95
2022-11-20T17:38:54.315Z,15.07
2022-11-20T17:41:22.671Z,14.98
2022-11-20T17:43:49.742Z,12.68
2022-11-20T17:46:19.472Z,13.95
2022-11-20T17:48:47.872Z,13.75
2022-11-20T17:51:19.993Z,16.67
2022-11-20T17:53:52.045Z,10.20
2022-11-20T17:56:37.482Z,14.23
2022-11-20T17:59:08.394Z,14.43
2022-11-20T18:01:35.197Z,14.82
2022-11-20T18:04:02.170Z,13.88
2022-11-20T18:06:29.875Z,14.52
2022-11-20T18:09:01.369Z,14.45
2022-11-20T18:11:33.759Z,14.63
2022-11-20T18:14:21.141Z,14.10
2022-11-20T18:16:51.118Z,15.80
2022-11-20T18:19:25.468Z,14.48
2022-11-20T18:24:20.952Z,13.07
2022-11-20T18:26:47.957Z,13.77
2022-11-20T18:29:14.631Z,13.35
2022-11-20T18:31:41.064Z,14.95
2022-11-20T18:34:11.447Z,13.57
2022-11-20T18:36:38.351Z,12.15
2022-11-20T18:39:04.792Z,12.75
2022-11-20T18:41:50.694Z,12.18
2022-11-20T18:44:40.005Z,14.50
2022-11-20T18:47:13.953Z,12.95
2022-11-20T18:49:50.963Z,14.40
2022-11-20T18:52:22.889Z,13.65
2022-11-20T18:54:50.219Z,13.55
2022-11-20T18:57:18.208Z,13.25
2022-11-20T18:59:44.956Z,11.15
2022-11-20T19:02:13.728Z,11.23
2022-11-20T19:04:40.258Z,11.20
2022-11-20T19:07:07.258Z,9.70
2022-11-20T19:09:34.440Z,7.82
2022-11-20T19:12:01.576Z,7.75
2022-11-20T19:14:28.767Z,7.85
2022-11-20T19:16:55.639Z,9.48
2022-11-20T19:19:23.851Z,7.65
2022-11-20T19:21:52.080Z,5.82
2022-11-20T19:24:18.661Z,4.88
2022-11-20T19:26:45.105Z,5.32
2022-11-20T19:29:14.567Z,4.93
2022-11-20T19:31:41.592Z,5.22
2022-11-20T19:34:09.341Z,7.13
2022-11-20T19:36:43.204Z,5.32
2022-11-20T19:39:11.741Z,2.60
2022-11-20T19:41:39.585Z,4.78
2022-11-20T19:44:15.000Z,7.32
2022-11-20T19:46:41.888Z,3.67
2022-11-20T19:49:10.569Z,5.20
2022-11-20T19:51:39.276Z,4.72
2022-11-20T19:54:06.335Z,6.13
2022-11-20T19:56:34.077Z,3.25
2022-11-20T19:59:06.361Z,4.57
2022-11-20T20:01:33.628Z,3.40
2022-11-20T20:04:02.428Z,3.38
2022-11-20T20:06:30.446Z,2.22
2022-11-20T20:09:04.080Z,2.47
2022-11-20T20:11:32.857Z,5.68
2022-11-20T20:14:07.313Z,2.85
2022-11-20T20:16:38.323Z,1.77
2022-11-20T20:19:16.422Z,4.50
2022-11-20T20:21:49.735Z,3.22
2022-11-20T20:24:16.634Z,2.03
2022-11-20T20:26:43.299Z,2.28
2022-11-20T20:29:09.873Z,1.35
2022-11-20T20:31:36.661Z,1.58
2022-11-20T20:34:05.130Z,2.08
2022-11-20T20:36:31.668Z,1.88
2022-11-20T20:39:05.150Z,3.38
2022-11-20T20:41:32.915Z,2.65
2022-11-20T20:44:23.932Z,1.30
2022-11-20T20:46:53.498Z,2.63
2022-11-20T20:49:20.074Z,2.60
2022-11-20T20:51:46.569Z,11.82
2022-11-20T20:54:13.259Z,11.18
2022-11-20T20:56:39.850Z,4.88
2022-11-20T20:59:06.596Z,3.30
2022-11-20T21:01:33.441Z,3.75
2022-11-20T21:03:59.979Z,2.00
2022-11-20T21:06:27.030Z,1.10
2022-11-20T21:08:55.777Z,1.27
2022-11-20T21:11:26.668Z,1.30
2022-11-20T21:13:53.613Z,1.48
2022-11-20T21:16:22.195Z,1.00
2022-11-20T21:18:49.235Z,1.00
2022-11-20T21:21:35.268Z,1.13
2022-11-20T21:24:02.941Z,1.30
2022-11-20T21:26:29.444Z,1.45
2022-11-20T21:28:57.370Z,0.85
2022-11-20T21:31:26.396Z,0.73
2022-11-20T21:33:54.784Z,1.10
2022-11-20T21:36:24.045Z,1.58
2022-11-20T21:38:52.220Z,1.02
2022-11-20T21:41:18.993Z,0.98
2022-11-20T21:43:45.775Z,1.15
2022-11-20T21:46:16.000Z,2.40
2022-11-20T21:48:44.023Z,6.15
2022-11-20T21:51:11.643Z,1.95
2022-11-20T21:53:38.841Z,1.50
2022-11-20T21:56:06.795Z,1.02
2022-11-20T21:58:34.230Z,1.63
2022-11-20T22:01:08.080Z,1.98
2022-11-20T22:03:34.579Z,1.20
2022-11-20T22:06:00.981Z,1.20
2022-11-20T22:08:27.806Z,1.90
2022-11-20T22:10:59.598Z,0.95
2022-11-20T22:13:46.250Z,1.13
2022-11-20T22:16:13.597Z,1.00
2022-11-20T22:18:44.623Z,0.98
2022-11-20T22:21:11.999Z,1.00
2022-11-20T22:23:38.579Z,1.30
2022-11-20T22:26:08.000Z,1.33
2022-11-20T22:28:35.344Z,1.20
2022-11-20T22:31:03.470Z,1.30
2022-11-20T22:33:31.726Z,1.08
2022-11-20T22:36:16.486Z,1.40
2022-11-20T22:38:43.245Z,1.35
2022-11-20T22:41:18.387Z,1.50
2022-11-20T22:43:45.650Z,1.15
2022-11-20T22:46:14.911Z,1.40
2022-11-20T22:48:43.946Z,1.50
2022-11-20T22:51:13.421Z,1.50
2022-11-20T22:53:40.943Z,1.52
2022-11-20T22:56:09.772Z,1.23
2022-11-20T22:58:37.485Z,1.33
2022-11-20T23:01:14.961Z,1.55
2022-11-20T23:03:44.420Z,1.30
2022-11-20T23:06:12.718Z,1.20
2022-11-20T23:08:40.495Z,1.65
2022-11-20T23:11:09.875Z,1.02
2022-11-20T23:13:36.651Z,1.30
2022-11-20T23:16:05.900Z,1.30
2022-11-20T23:18:34.232Z,1.73
2022-11-20T23:21:09.498Z,1.48
2022-11-20T23:23:36.415Z,1.20
2022-11-20T23:26:13.686Z,0.95
2022-11-20T23:28:41.180Z,0.88
2022-11-20T23:31:09.100Z,0.80
2022-11-20T23:33:36.905Z,1.08
2022-11-20T23:36:03.848Z,1.00
2022-11-20T23:38:30.241Z,0.93
2022-11-20T23:40:56.622Z,0.70
2022-11-20T23:43:24.156Z,0.90
2022-11-20T23:45:52.875Z,1.00
2022-11-20T23:48:20.702Z,0.70
2022-11-20T23:50:47.388Z,0.57
2022-11-20T23:53:14.824Z,0.70
2022-11-20T23:55:49.538Z,0.55
2022-11-20T23:58:16.601Z,0.40
